Augusta, Michigan
Current Conditions -  °F | °C
As of 10:53 AM on Thursday 23 Oct 2014 (Local Time) from KBTL Reporting Station
Clear Clear  
Wind Chill:   Ceiling: Unl
Heat Index:   Visibility: 7mi
Dew Point:   Wind: 8mph
Humidity: 92%   Direction: 220°SW
Pressure: 30.25"   Gusts: NA
Location:  42.34°N, 85.35°W
Report Text: KBTL 231453Z 22007KT 7SM CLR 06/04 A3025 RMK AO2 SLP250 I3001 T00560044 50000
Loading
Personal Weather Stations






























Interactive Weather Map
Tropical Storm Tracking
New forecast layout! Learn more

10-Day Weather Forecast

Advertisements
Track Severe Weather on mobile